sensor_id;sensor_type;location;lat;lon;timestamp;P1;durP1;ratioP1;P2;durP2;ratioP2
44662;SDS011;30381;52.754;18.258;2023-04-25T04:16:51;6.30;;;2.10;;
44662;SDS011;30381;52.754;18.258;2023-04-25T04:19:46;4.80;;;2.00;;
44662;SDS011;30381;52.754;18.258;2023-04-25T04:22:57;5.60;;;1.80;;
44662;SDS011;30381;52.754;18.258;2023-04-25T04:34:35;9.40;;;2.70;;
44662;SDS011;30381;52.754;18.258;2023-04-25T04:43:09;12.40;;;3.30;;
44662;SDS011;30381;52.754;18.258;2023-04-25T04:46:00;8.40;;;2.70;;
44662;SDS011;30381;52.754;18.258;2023-04-25T04:51:45;6.70;;;2.60;;
44662;SDS011;30381;52.754;18.258;2023-04-25T04:57:28;7.00;;;2.60;;
44662;SDS011;30381;52.754;18.258;2023-04-25T05:05:53;5.70;;;2.30;;
44662;SDS011;30381;52.754;18.258;2023-04-25T05:08:47;8.50;;;2.40;;
44662;SDS011;30381;52.754;18.258;2023-04-25T05:11:28;8.30;;;2.40;;
44662;SDS011;30381;52.754;18.258;2023-04-25T05:14:04;7.40;;;2.90;;
44662;SDS011;30381;52.754;18.258;2023-04-25T05:17:01;8.60;;;3.20;;
44662;SDS011;30381;52.754;18.258;2023-04-25T05:20:01;7.40;;;2.70;;
44662;SDS011;30381;52.754;18.258;2023-04-25T05:23:33;9.10;;;3.40;;
44662;SDS011;30381;52.754;18.258;2023-04-25T05:32:45;8.60;;;3.30;;
44662;SDS011;30381;52.754;18.258;2023-04-25T05:43:59;11.80;;;3.40;;
44662;SDS011;30381;52.754;18.258;2023-04-25T06:48:49;7.40;;;2.70;;
44662;SDS011;30381;52.754;18.258;2023-04-25T06:51:16;8.00;;;3.10;;
44662;SDS011;30381;52.754;18.258;2023-04-25T06:56:57;9.90;;;4.00;;
44662;SDS011;30381;52.754;18.258;2023-04-25T06:59:29;8.30;;;3.30;;
44662;SDS011;30381;52.754;18.258;2023-04-25T07:01:59;5.70;;;2.60;;
44662;SDS011;30381;52.754;18.258;2023-04-25T07:04:52;7.20;;;3.30;;
44662;SDS011;30381;52.754;18.258;2023-04-25T07:07:19;8.40;;;3.50;;
44662;SDS011;30381;52.754;18.258;2023-04-25T07:09:47;7.30;;;2.90;;
44662;SDS011;30381;52.754;18.258;2023-04-25T07:12:13;6.50;;;2.70;;
44662;SDS011;30381;52.754;18.258;2023-04-25T07:14:44;7.00;;;2.70;;
44662;SDS011;30381;52.754;18.258;2023-04-25T07:17:10;6.90;;;2.70;;
44662;SDS011;30381;52.754;18.258;2023-04-25T07:19:36;11.00;;;3.70;;
44662;SDS011;30381;52.754;18.258;2023-04-25T07:22:04;7.00;;;3.30;;
44662;SDS011;30381;52.754;18.258;2023-04-25T07:24:31;9.70;;;3.70;;
44662;SDS011;30381;52.754;18.258;2023-04-25T07:27:06;6.30;;;2.70;;
44662;SDS011;30381;52.754;18.258;2023-04-25T07:29:38;7.40;;;2.70;;
44662;SDS011;30381;52.754;18.258;2023-04-25T07:32:04;6.40;;;2.70;;
44662;SDS011;30381;52.754;18.258;2023-04-25T07:34:30;6.70;;;3.30;;
44662;SDS011;30381;52.754;18.258;2023-04-25T07:36:57;6.50;;;3.00;;
44662;SDS011;30381;52.754;18.258;2023-04-25T07:39:28;7.80;;;3.20;;
44662;SDS011;30381;52.754;18.258;2023-04-25T07:41:54;7.50;;;3.40;;
44662;SDS011;30381;52.754;18.258;2023-04-25T07:44:21;10.00;;;3.10;;
44662;SDS011;30381;52.754;18.258;2023-04-25T07:46:54;10.60;;;4.50;;
44662;SDS011;30381;52.754;18.258;2023-04-25T07:49:43;9.10;;;3.30;;
44662;SDS011;30381;52.754;18.258;2023-04-25T07:52:11;8.50;;;3.20;;
44662;SDS011;30381;52.754;18.258;2023-04-25T07:54:38;7.60;;;3.40;;
44662;SDS011;30381;52.754;18.258;2023-04-25T07:57:05;8.80;;;3.90;;
44662;SDS011;30381;52.754;18.258;2023-04-25T07:59:32;7.50;;;3.40;;
44662;SDS011;30381;52.754;18.258;2023-04-25T08:02:00;9.20;;;4.00;;
44662;SDS011;30381;52.754;18.258;2023-04-25T08:04:27;10.30;;;3.70;;
44662;SDS011;30381;52.754;18.258;2023-04-25T08:06:54;7.80;;;3.40;;
44662;SDS011;30381;52.754;18.258;2023-04-25T08:09:20;6.90;;;3.10;;
44662;SDS011;30381;52.754;18.258;2023-04-25T08:11:47;12.10;;;3.80;;
44662;SDS011;30381;52.754;18.258;2023-04-25T08:14:22;8.30;;;3.50;;
44662;SDS011;30381;52.754;18.258;2023-04-25T08:16:52;7.50;;;3.10;;
44662;SDS011;30381;52.754;18.258;2023-04-25T08:19:39;8.30;;;3.00;;
44662;SDS011;30381;52.754;18.258;2023-04-25T08:22:06;8.20;;;4.00;;
44662;SDS011;30381;52.754;18.258;2023-04-25T08:24:44;6.90;;;3.20;;
44662;SDS011;30381;52.754;18.258;2023-04-25T08:27:19;8.50;;;3.30;;
44662;SDS011;30381;52.754;18.258;2023-04-25T08:29:55;8.40;;;3.80;;
44662;SDS011;30381;52.754;18.258;2023-04-25T08:32:22;8.70;;;3.90;;
44662;SDS011;30381;52.754;18.258;2023-04-25T08:35:05;9.00;;;3.80;;
44662;SDS011;30381;52.754;18.258;2023-04-25T08:37:32;8.70;;;4.10;;
44662;SDS011;30381;52.754;18.258;2023-04-25T08:39:59;10.10;;;4.20;;
44662;SDS011;30381;52.754;18.258;2023-04-25T08:42:26;9.50;;;4.30;;
44662;SDS011;30381;52.754;18.258;2023-04-25T08:44:53;8.80;;;3.50;;
44662;SDS011;30381;52.754;18.258;2023-04-25T08:47:21;9.30;;;3.10;;
44662;SDS011;30381;52.754;18.258;2023-04-25T08:49:51;7.90;;;3.70;;
44662;SDS011;30381;52.754;18.258;2023-04-25T08:52:21;8.90;;;3.30;;
44662;SDS011;30381;52.754;18.258;2023-04-25T08:54:57;8.30;;;3.70;;
44662;SDS011;30381;52.754;18.258;2023-04-25T08:57:23;9.30;;;3.40;;
44662;SDS011;30381;52.754;18.258;2023-04-25T09:00:13;9.10;;;3.50;;
44662;SDS011;30381;52.754;18.258;2023-04-25T09:02:46;8.80;;;4.30;;
44662;SDS011;30381;52.754;18.258;2023-04-25T09:05:13;10.60;;;4.90;;
44662;SDS011;30381;52.754;18.258;2023-04-25T09:07:39;12.60;;;5.10;;
44662;SDS011;30381;52.754;18.258;2023-04-25T09:10:06;9.50;;;3.80;;
44662;SDS011;30381;52.754;18.258;2023-04-25T09:12:35;9.10;;;4.10;;
44662;SDS011;30381;52.754;18.258;2023-04-25T09:15:07;8.80;;;4.00;;
44662;SDS011;30381;52.754;18.258;2023-04-25T09:17:54;11.20;;;4.10;;
44662;SDS011;30381;52.754;18.258;2023-04-25T09:20:24;8.20;;;3.90;;
44662;SDS011;30381;52.754;18.258;2023-04-25T09:23:11;10.20;;;4.30;;
44662;SDS011;30381;52.754;18.258;2023-04-25T09:25:37;9.40;;;3.90;;
44662;SDS011;30381;52.754;18.258;2023-04-25T09:28:08;8.80;;;3.40;;
44662;SDS011;30381;52.754;18.258;2023-04-25T09:30:35;6.00;;;2.50;;
44662;SDS011;30381;52.754;18.258;2023-04-25T09:33:06;7.60;;;3.00;;
44662;SDS011;30381;52.754;18.258;2023-04-25T09:35:41;7.70;;;3.40;;
44662;SDS011;30381;52.754;18.258;2023-04-25T09:38:13;8.90;;;3.90;;
44662;SDS011;30381;52.754;18.258;2023-04-25T09:40:41;6.90;;;3.00;;
44662;SDS011;30381;52.754;18.258;2023-04-25T09:43:27;7.70;;;3.30;;
44662;SDS011;30381;52.754;18.258;2023-04-25T09:45:54;8.30;;;3.20;;
44662;SDS011;30381;52.754;18.258;2023-04-25T09:48:24;12.80;;;4.00;;
44662;SDS011;30381;52.754;18.258;2023-04-25T09:51:11;10.60;;;4.20;;
44662;SDS011;30381;52.754;18.258;2023-04-25T09:53:42;8.10;;;3.60;;
44662;SDS011;30381;52.754;18.258;2023-04-25T09:56:28;9.40;;;3.60;;
44662;SDS011;30381;52.754;18.258;2023-04-25T09:59:09;8.50;;;3.10;;
44662;SDS011;30381;52.754;18.258;2023-04-25T10:02:04;11.20;;;3.10;;
44662;SDS011;30381;52.754;18.258;2023-04-25T10:04:31;11.90;;;3.40;;
44662;SDS011;30381;52.754;18.258;2023-04-25T10:07:10;9.50;;;3.10;;
44662;SDS011;30381;52.754;18.258;2023-04-25T10:09:38;8.70;;;3.60;;
44662;SDS011;30381;52.754;18.258;2023-04-25T10:12:06;9.20;;;3.90;;
44662;SDS011;30381;52.754;18.258;2023-04-25T10:14:35;6.50;;;2.90;;
44662;SDS011;30381;52.754;18.258;2023-04-25T10:17:01;7.20;;;3.40;;
44662;SDS011;30381;52.754;18.258;2023-04-25T10:19:48;8.40;;;3.40;;
44662;SDS011;30381;52.754;18.258;2023-04-25T10:22:20;9.50;;;3.40;;
44662;SDS011;30381;52.754;18.258;2023-04-25T10:24:52;11.00;;;3.60;;
44662;SDS011;30381;52.754;18.258;2023-04-25T10:27:19;9.10;;;3.50;;
44662;SDS011;30381;52.754;18.258;2023-04-25T10:29:46;8.50;;;3.20;;
44662;SDS011;30381;52.754;18.258;2023-04-25T10:32:30;15.90;;;3.60;;
44662;SDS011;30381;52.754;18.258;2023-04-25T10:38:00;8.10;;;2.90;;
44662;SDS011;30381;52.754;18.258;2023-04-25T10:40:30;8.20;;;3.40;;
44662;SDS011;30381;52.754;18.258;2023-04-25T10:45:59;8.80;;;3.40;;
44662;SDS011;30381;52.754;18.258;2023-04-25T10:48:29;7.60;;;3.20;;
44662;SDS011;30381;52.754;18.258;2023-04-25T10:51:09;8.30;;;3.30;;
44662;SDS011;30381;52.754;18.258;2023-04-25T10:53:38;9.90;;;3.70;;
44662;SDS011;30381;52.754;18.258;2023-04-25T10:56:17;8.20;;;3.20;;
44662;SDS011;30381;52.754;18.258;2023-04-25T10:58:45;5.20;;;1.80;;
44662;SDS011;30381;52.754;18.258;2023-04-25T11:01:13;7.90;;;2.00;;
44662;SDS011;30381;52.754;18.258;2023-04-25T11:03:41;4.80;;;1.80;;
44662;SDS011;30381;52.754;18.258;2023-04-25T11:06:58;7.60;;;2.40;;
44662;SDS011;30381;52.754;18.258;2023-04-25T11:09:12;8.90;;;2.70;;
44662;SDS011;30381;52.754;18.258;2023-04-25T11:11:39;6.90;;;2.60;;
44662;SDS011;30381;52.754;18.258;2023-04-25T11:14:05;7.10;;;2.60;;
44662;SDS011;30381;52.754;18.258;2023-04-25T11:16:32;8.10;;;2.60;;
44662;SDS011;30381;52.754;18.258;2023-04-25T11:18:58;7.70;;;2.60;;
44662;SDS011;30381;52.754;18.258;2023-04-25T11:21:25;6.70;;;2.30;;
44662;SDS011;30381;52.754;18.258;2023-04-25T11:24:07;4.80;;;2.20;;
44662;SDS011;30381;52.754;18.258;2023-04-25T11:26:46;6.50;;;2.70;;
44662;SDS011;30381;52.754;18.258;2023-04-25T11:29:13;6.60;;;2.40;;
44662;SDS011;30381;52.754;18.258;2023-04-25T11:31:50;7.80;;;3.60;;
44662;SDS011;30381;52.754;18.258;2023-04-25T11:34:27;7.60;;;3.10;;
44662;SDS011;30381;52.754;18.258;2023-04-25T11:36:56;6.90;;;2.50;;
44662;SDS011;30381;52.754;18.258;2023-04-25T11:39:26;9.60;;;3.00;;
44662;SDS011;30381;52.754;18.258;2023-04-25T11:42:04;9.50;;;3.20;;
44662;SDS011;30381;52.754;18.258;2023-04-25T11:44:31;8.00;;;2.90;;
44662;SDS011;30381;52.754;18.258;2023-04-25T11:46:57;4.70;;;2.20;;
44662;SDS011;30381;52.754;18.258;2023-04-25T11:49:24;7.70;;;2.40;;
44662;SDS011;30381;52.754;18.258;2023-04-25T11:51:56;6.40;;;2.40;;
44662;SDS011;30381;52.754;18.258;2023-04-25T11:54:27;6.80;;;2.20;;
44662;SDS011;30381;52.754;18.258;2023-04-25T11:56:53;7.30;;;2.50;;
44662;SDS011;30381;52.754;18.258;2023-04-25T11:59:22;10.60;;;3.40;;
44662;SDS011;30381;52.754;18.258;2023-04-25T12:01:50;10.10;;;3.10;;
44662;SDS011;30381;52.754;18.258;2023-04-25T12:04:20;12.10;;;3.30;;
44662;SDS011;30381;52.754;18.258;2023-04-25T12:06:49;8.70;;;2.90;;
44662;SDS011;30381;52.754;18.258;2023-04-25T12:09:28;8.50;;;2.90;;
44662;SDS011;30381;52.754;18.258;2023-04-25T12:11:58;7.40;;;3.00;;
44662;SDS011;30381;52.754;18.258;2023-04-25T12:14:33;7.10;;;3.10;;
44662;SDS011;30381;52.754;18.258;2023-04-25T12:17:01;9.60;;;3.50;;
44662;SDS011;30381;52.754;18.258;2023-04-25T12:19:37;7.80;;;3.30;;
44662;SDS011;30381;52.754;18.258;2023-04-25T12:22:20;8.20;;;3.40;;
44662;SDS011;30381;52.754;18.258;2023-04-25T12:25:08;7.40;;;3.00;;
44662;SDS011;30381;52.754;18.258;2023-04-25T12:27:43;9.80;;;3.40;;
44662;SDS011;30381;52.754;18.258;2023-04-25T12:30:09;8.00;;;2.80;;
44662;SDS011;30381;52.754;18.258;2023-04-25T12:32:36;6.70;;;2.70;;
44662;SDS011;30381;52.754;18.258;2023-04-25T12:35:04;5.90;;;2.40;;
44662;SDS011;30381;52.754;18.258;2023-04-25T12:37:32;8.50;;;2.70;;
44662;SDS011;30381;52.754;18.258;2023-04-25T12:39:58;7.30;;;3.00;;
44662;SDS011;30381;52.754;18.258;2023-04-25T12:42:24;6.00;;;2.70;;
44662;SDS011;30381;52.754;18.258;2023-04-25T12:44:50;8.20;;;3.30;;
44662;SDS011;30381;52.754;18.258;2023-04-25T12:47:20;8.30;;;2.70;;
44662;SDS011;30381;52.754;18.258;2023-04-25T12:49:51;7.00;;;3.10;;
44662;SDS011;30381;52.754;18.258;2023-04-25T12:52:17;6.40;;;2.80;;
44662;SDS011;30381;52.754;18.258;2023-04-25T12:54:43;6.30;;;2.80;;
44662;SDS011;30381;52.754;18.258;2023-04-25T12:57:14;10.70;;;4.40;;
44662;SDS011;30381;52.754;18.258;2023-04-25T12:59:40;9.20;;;3.60;;
44662;SDS011;30381;52.754;18.258;2023-04-25T13:02:08;8.40;;;3.20;;
44662;SDS011;30381;52.754;18.258;2023-04-25T13:04:34;9.80;;;3.30;;
44662;SDS011;30381;52.754;18.258;2023-04-25T13:07:01;7.90;;;2.80;;
44662;SDS011;30381;52.754;18.258;2023-04-25T13:09:27;8.60;;;3.50;;
44662;SDS011;30381;52.754;18.258;2023-04-25T13:11:54;8.20;;;3.60;;
44662;SDS011;30381;52.754;18.258;2023-04-25T13:14:21;7.20;;;3.30;;
44662;SDS011;30381;52.754;18.258;2023-04-25T13:16:52;10.60;;;3.40;;
44662;SDS011;30381;52.754;18.258;2023-04-25T13:19:19;8.10;;;3.00;;
44662;SDS011;30381;52.754;18.258;2023-04-25T13:22:07;8.70;;;3.40;;
44662;SDS011;30381;52.754;18.258;2023-04-25T13:24:42;7.60;;;3.40;;
44662;SDS011;30381;52.754;18.258;2023-04-25T13:27:08;11.10;;;3.60;;
44662;SDS011;30381;52.754;18.258;2023-04-25T13:29:35;7.60;;;2.70;;
44662;SDS011;30381;52.754;18.258;2023-04-25T13:32:03;6.60;;;2.60;;
44662;SDS011;30381;52.754;18.258;2023-04-25T14:23:12;14.30;;;7.40;;
44662;SDS011;30381;52.754;18.258;2023-04-25T14:25:38;14.90;;;6.80;;
44662;SDS011;30381;52.754;18.258;2023-04-25T14:28:24;19.10;;;9.10;;
44662;SDS011;30381;52.754;18.258;2023-04-25T14:31:10;14.60;;;6.20;;
44662;SDS011;30381;52.754;18.258;2023-04-25T14:33:51;25.10;;;11.60;;
44662;SDS011;30381;52.754;18.258;2023-04-25T14:36:17;44.80;;;22.20;;
44662;SDS011;30381;52.754;18.258;2023-04-25T14:39:00;13.30;;;4.50;;
44662;SDS011;30381;52.754;18.258;2023-04-25T14:41:35;19.50;;;9.90;;
44662;SDS011;30381;52.754;18.258;2023-04-25T14:44:01;20.90;;;7.00;;
44662;SDS011;30381;52.754;18.258;2023-04-25T14:46:28;8.00;;;2.60;;
44662;SDS011;30381;52.754;18.258;2023-04-25T14:49:06;8.80;;;2.40;;
44662;SDS011;30381;52.754;18.258;2023-04-25T14:51:32;6.20;;;2.10;;
44662;SDS011;30381;52.754;18.258;2023-04-25T14:54:00;7.60;;;2.10;;
44662;SDS011;30381;52.754;18.258;2023-04-25T14:56:27;6.60;;;2.00;;
44662;SDS011;30381;52.754;18.258;2023-04-25T14:58:53;7.00;;;2.10;;
44662;SDS011;30381;52.754;18.258;2023-04-25T15:01:23;8.00;;;3.10;;
44662;SDS011;30381;52.754;18.258;2023-04-25T15:03:49;8.60;;;2.40;;
44662;SDS011;30381;52.754;18.258;2023-04-25T15:06:20;10.10;;;2.40;;
44662;SDS011;30381;52.754;18.258;2023-04-25T15:08:46;9.70;;;2.60;;
44662;SDS011;30381;52.754;18.258;2023-04-25T15:11:16;22.30;;;4.20;;
44662;SDS011;30381;52.754;18.258;2023-04-25T15:13:42;9.30;;;2.80;;
44662;SDS011;30381;52.754;18.258;2023-04-25T15:16:25;8.70;;;2.50;;
44662;SDS011;30381;52.754;18.258;2023-04-25T15:18:54;5.80;;;2.10;;
44662;SDS011;30381;52.754;18.258;2023-04-25T15:21:20;10.90;;;2.00;;
44662;SDS011;30381;52.754;18.258;2023-04-25T15:23:47;6.30;;;2.00;;
44662;SDS011;30381;52.754;18.258;2023-04-25T15:26:19;7.80;;;2.10;;
44662;SDS011;30381;52.754;18.258;2023-04-25T15:28:45;5.90;;;1.90;;
44662;SDS011;30381;52.754;18.258;2023-04-25T15:31:12;5.60;;;1.90;;
44662;SDS011;30381;52.754;18.258;2023-04-25T15:33:38;14.50;;;2.50;;
44662;SDS011;30381;52.754;18.258;2023-04-25T15:36:05;8.40;;;2.60;;
44662;SDS011;30381;52.754;18.258;2023-04-25T15:38:36;11.30;;;3.10;;
44662;SDS011;30381;52.754;18.258;2023-04-25T15:41:02;6.60;;;2.40;;
44662;SDS011;30381;52.754;18.258;2023-04-25T15:43:35;11.40;;;3.50;;
44662;SDS011;30381;52.754;18.258;2023-04-25T15:46:29;10.60;;;3.60;;
44662;SDS011;30381;52.754;18.258;2023-04-25T15:48:59;11.50;;;3.30;;
44662;SDS011;30381;52.754;18.258;2023-04-25T15:51:25;10.60;;;3.40;;
44662;SDS011;30381;52.754;18.258;2023-04-25T15:53:56;10.20;;;3.40;;
44662;SDS011;30381;52.754;18.258;2023-04-25T15:56:28;9.80;;;3.40;;
44662;SDS011;30381;52.754;18.258;2023-04-25T15:58:55;8.70;;;3.50;;
44662;SDS011;30381;52.754;18.258;2023-04-25T16:01:21;7.40;;;3.20;;
44662;SDS011;30381;52.754;18.258;2023-04-25T16:03:50;11.90;;;4.70;;
44662;SDS011;30381;52.754;18.258;2023-04-25T16:06:23;12.60;;;5.30;;
44662;SDS011;30381;52.754;18.258;2023-04-25T16:09:11;10.80;;;4.70;;
44662;SDS011;30381;52.754;18.258;2023-04-25T16:11:39;13.30;;;5.30;;
44662;SDS011;30381;52.754;18.258;2023-04-25T16:14:06;10.20;;;3.90;;
44662;SDS011;30381;52.754;18.258;2023-04-25T16:16:33;9.70;;;3.90;;
44662;SDS011;30381;52.754;18.258;2023-04-25T16:18:59;9.50;;;3.90;;
44662;SDS011;30381;52.754;18.258;2023-04-25T16:21:26;9.10;;;3.60;;
44662;SDS011;30381;52.754;18.258;2023-04-25T16:23:53;8.40;;;3.10;;
44662;SDS011;30381;52.754;18.258;2023-04-25T16:26:23;8.10;;;3.50;;
44662;SDS011;30381;52.754;18.258;2023-04-25T18:54:16;14.60;;;5.10;;
44662;SDS011;30381;52.754;18.258;2023-04-25T18:56:59;17.20;;;5.50;;
44662;SDS011;30381;52.754;18.258;2023-04-25T18:59:32;16.20;;;4.80;;
44662;SDS011;30381;52.754;18.258;2023-04-25T19:02:01;17.20;;;5.20;;
44662;SDS011;30381;52.754;18.258;2023-04-25T19:04:40;16.50;;;4.50;;
44662;SDS011;30381;52.754;18.258;2023-04-25T19:07:30;17.00;;;4.10;;
44662;SDS011;30381;52.754;18.258;2023-04-25T19:09:57;15.60;;;4.40;;
44662;SDS011;30381;52.754;18.258;2023-04-25T19:12:29;15.70;;;4.10;;
44662;SDS011;30381;52.754;18.258;2023-04-25T19:14:57;17.70;;;4.40;;
44662;SDS011;30381;52.754;18.258;2023-04-25T19:17:24;12.50;;;3.90;;
44662;SDS011;30381;52.754;18.258;2023-04-25T19:19:51;14.30;;;4.00;;
44662;SDS011;30381;52.754;18.258;2023-04-25T19:22:17;15.30;;;4.40;;
44662;SDS011;30381;52.754;18.258;2023-04-25T19:35:45;17.30;;;4.10;;
44662;SDS011;30381;52.754;18.258;2023-04-25T19:38:12;12.10;;;4.00;;
44662;SDS011;30381;52.754;18.258;2023-04-25T19:40:40;13.10;;;4.30;;
44662;SDS011;30381;52.754;18.258;2023-04-25T19:43:10;14.00;;;3.90;;
44662;SDS011;30381;52.754;18.258;2023-04-25T19:45:46;14.70;;;3.50;;
44662;SDS011;30381;52.754;18.258;2023-04-25T19:48:14;10.60;;;3.40;;
44662;SDS011;30381;52.754;18.258;2023-04-25T19:51:21;16.30;;;4.60;;
44662;SDS011;30381;52.754;18.258;2023-04-25T19:53:49;13.30;;;3.80;;
44662;SDS011;30381;52.754;18.258;2023-04-25T19:56:18;18.80;;;4.10;;
44662;SDS011;30381;52.754;18.258;2023-04-25T19:58:45;13.50;;;4.90;;
44662;SDS011;30381;52.754;18.258;2023-04-25T20:01:12;14.50;;;4.40;;
44662;SDS011;30381;52.754;18.258;2023-04-25T20:03:41;19.90;;;5.30;;
44662;SDS011;30381;52.754;18.258;2023-04-25T20:06:10;14.70;;;4.80;;
44662;SDS011;30381;52.754;18.258;2023-04-25T20:08:37;15.60;;;5.20;;
44662;SDS011;30381;52.754;18.258;2023-04-25T20:11:04;15.70;;;5.30;;
44662;SDS011;30381;52.754;18.258;2023-04-25T20:13:31;16.80;;;5.10;;
44662;SDS011;30381;52.754;18.258;2023-04-25T20:16:16;18.70;;;7.00;;
44662;SDS011;30381;52.754;18.258;2023-04-25T20:18:47;17.50;;;7.10;;
44662;SDS011;30381;52.754;18.258;2023-04-25T20:21:21;19.80;;;6.80;;
44662;SDS011;30381;52.754;18.258;2023-04-25T20:23:54;13.40;;;4.70;;
44662;SDS011;30381;52.754;18.258;2023-04-25T20:26:21;12.70;;;4.40;;
44662;SDS011;30381;52.754;18.258;2023-04-25T20:28:47;15.60;;;4.60;;
44662;SDS011;30381;52.754;18.258;2023-04-25T20:31:15;15.60;;;5.10;;
44662;SDS011;30381;52.754;18.258;2023-04-25T20:33:42;16.70;;;5.10;;
44662;SDS011;30381;52.754;18.258;2023-04-25T20:36:08;17.00;;;5.10;;
44662;SDS011;30381;52.754;18.258;2023-04-25T20:38:34;16.50;;;5.50;;
44662;SDS011;30381;52.754;18.258;2023-04-25T20:41:08;15.50;;;5.70;;
44662;SDS011;30381;52.754;18.258;2023-04-25T20:43:44;17.20;;;4.70;;
44662;SDS011;30381;52.754;18.258;2023-04-25T20:46:13;14.80;;;5.30;;
44662;SDS011;30381;52.754;18.258;2023-04-25T20:48:41;13.70;;;4.70;;
44662;SDS011;30381;52.754;18.258;2023-04-25T20:51:12;15.10;;;4.10;;
44662;SDS011;30381;52.754;18.258;2023-04-25T20:53:38;13.80;;;4.40;;
44662;SDS011;30381;52.754;18.258;2023-04-25T20:56:05;17.00;;;4.40;;
44662;SDS011;30381;52.754;18.258;2023-04-25T20:58:33;16.30;;;4.40;;
44662;SDS011;30381;52.754;18.258;2023-04-25T21:01:01;19.70;;;5.70;;
44662;SDS011;30381;52.754;18.258;2023-04-25T21:03:31;18.60;;;5.50;;
44662;SDS011;30381;52.754;18.258;2023-04-25T21:06:01;17.90;;;5.50;;
44662;SDS011;30381;52.754;18.258;2023-04-25T21:08:31;16.20;;;5.00;;
44662;SDS011;30381;52.754;18.258;2023-04-25T21:11:01;15.90;;;5.40;;
44662;SDS011;30381;52.754;18.258;2023-04-25T21:13:41;17.20;;;5.30;;
44662;SDS011;30381;52.754;18.258;2023-04-25T21:16:09;15.80;;;4.50;;
44662;SDS011;30381;52.754;18.258;2023-04-25T21:18:39;16.80;;;4.60;;
44662;SDS011;30381;52.754;18.258;2023-04-25T21:21:06;15.20;;;4.30;;
44662;SDS011;30381;52.754;18.258;2023-04-25T21:23:33;13.70;;;4.60;;
44662;SDS011;30381;52.754;18.258;2023-04-25T21:26:00;17.20;;;4.90;;
44662;SDS011;30381;52.754;18.258;2023-04-25T21:28:26;17.40;;;5.80;;
44662;SDS011;30381;52.754;18.258;2023-04-25T21:30:53;17.50;;;5.60;;
44662;SDS011;30381;52.754;18.258;2023-04-25T21:33:29;18.50;;;5.10;;
44662;SDS011;30381;52.754;18.258;2023-04-25T21:36:22;15.50;;;5.40;;
44662;SDS011;30381;52.754;18.258;2023-04-25T21:39:01;20.10;;;5.90;;
44662;SDS011;30381;52.754;18.258;2023-04-25T21:41:31;16.70;;;6.50;;
44662;SDS011;30381;52.754;18.258;2023-04-25T21:44:02;22.40;;;7.00;;
44662;SDS011;30381;52.754;18.258;2023-04-25T21:46:32;23.90;;;8.60;;
44662;SDS011;30381;52.754;18.258;2023-04-25T21:49:06;20.80;;;7.20;;
44662;SDS011;30381;52.754;18.258;2023-04-25T21:51:33;20.40;;;7.30;;
44662;SDS011;30381;52.754;18.258;2023-04-25T21:54:04;17.20;;;6.80;;
44662;SDS011;30381;52.754;18.258;2023-04-25T21:56:32;20.60;;;6.30;;
44662;SDS011;30381;52.754;18.258;2023-04-25T21:58:59;26.30;;;8.80;;
44662;SDS011;30381;52.754;18.258;2023-04-25T22:01:36;20.20;;;7.80;;
44662;SDS011;30381;52.754;18.258;2023-04-25T22:04:04;21.70;;;7.30;;
44662;SDS011;30381;52.754;18.258;2023-04-25T22:06:32;23.20;;;7.30;;
44662;SDS011;30381;52.754;18.258;2023-04-25T22:09:01;21.30;;;8.00;;
44662;SDS011;30381;52.754;18.258;2023-04-25T22:11:28;26.40;;;8.10;;
44662;SDS011;30381;52.754;18.258;2023-04-25T22:13:57;31.90;;;9.50;;
44662;SDS011;30381;52.754;18.258;2023-04-25T22:16:25;23.90;;;8.80;;
44662;SDS011;30381;52.754;18.258;2023-04-25T22:18:54;27.90;;;8.50;;
44662;SDS011;30381;52.754;18.258;2023-04-25T22:21:22;21.60;;;8.80;;
44662;SDS011;30381;52.754;18.258;2023-04-25T22:23:50;20.70;;;7.60;;
44662;SDS011;30381;52.754;18.258;2023-04-25T22:26:18;22.30;;;7.70;;
44662;SDS011;30381;52.754;18.258;2023-04-25T22:29:15;22.10;;;7.60;;
44662;SDS011;30381;52.754;18.258;2023-04-25T22:32:03;22.90;;;7.60;;
44662;SDS011;30381;52.754;18.258;2023-04-25T22:34:45;27.50;;;7.50;;
44662;SDS011;30381;52.754;18.258;2023-04-25T22:37:12;19.80;;;6.90;;
44662;SDS011;30381;52.754;18.258;2023-04-25T22:40:04;19.60;;;6.90;;
44662;SDS011;30381;52.754;18.258;2023-04-25T22:42:41;22.80;;;7.80;;
44662;SDS011;30381;52.754;18.258;2023-04-25T22:45:11;24.80;;;7.80;;
44662;SDS011;30381;52.754;18.258;2023-04-25T22:47:50;22.10;;;8.10;;
44662;SDS011;30381;52.754;18.258;2023-04-25T22:51:27;21.10;;;8.20;;
44662;SDS011;30381;52.754;18.258;2023-04-25T22:54:07;24.00;;;8.10;;
44662;SDS011;30381;52.754;18.258;2023-04-25T22:56:51;25.10;;;8.50;;
44662;SDS011;30381;52.754;18.258;2023-04-25T22:59:18;23.30;;;7.10;;
44662;SDS011;30381;52.754;18.258;2023-04-25T23:01:48;18.60;;;6.80;;
44662;SDS011;30381;52.754;18.258;2023-04-25T23:04:28;24.10;;;6.70;;
44662;SDS011;30381;52.754;18.258;2023-04-25T23:07:09;16.70;;;6.80;;
44662;SDS011;30381;52.754;18.258;2023-04-25T23:09:50;16.60;;;6.50;;
44662;SDS011;30381;52.754;18.258;2023-04-25T23:12:29;17.40;;;7.50;;
44662;SDS011;30381;52.754;18.258;2023-04-25T23:14:56;25.70;;;7.90;;
44662;SDS011;30381;52.754;18.258;2023-04-25T23:17:26;24.70;;;7.40;;
44662;SDS011;30381;52.754;18.258;2023-04-25T23:19:57;25.00;;;7.60;;
44662;SDS011;30381;52.754;18.258;2023-04-25T23:22:42;14.20;;;5.90;;
44662;SDS011;30381;52.754;18.258;2023-04-25T23:25:29;16.50;;;5.90;;
44662;SDS011;30381;52.754;18.258;2023-04-25T23:28:03;14.60;;;4.80;;
44662;SDS011;30381;52.754;18.258;2023-04-25T23:30:36;16.60;;;5.50;;
44662;SDS011;30381;52.754;18.258;2023-04-25T23:33:03;21.30;;;6.90;;
44662;SDS011;30381;52.754;18.258;2023-04-25T23:35:35;17.80;;;6.00;;
44662;SDS011;30381;52.754;18.258;2023-04-25T23:38:03;16.90;;;5.70;;
44662;SDS011;30381;52.754;18.258;2023-04-25T23:40:30;18.70;;;5.80;;
44662;SDS011;30381;52.754;18.258;2023-04-25T23:43:00;19.60;;;6.10;;
44662;SDS011;30381;52.754;18.258;2023-04-25T23:45:50;17.30;;;6.60;;
44662;SDS011;30381;52.754;18.258;2023-04-25T23:48:37;17.10;;;5.50;;
44662;SDS011;30381;52.754;18.258;2023-04-25T23:51:07;16.50;;;6.00;;
44662;SDS011;30381;52.754;18.258;2023-04-25T23:53:39;18.30;;;5.30;;
44662;SDS011;30381;52.754;18.258;2023-04-25T23:56:07;13.70;;;5.60;;
44662;SDS011;30381;52.754;18.258;2023-04-25T23:58:35;16.90;;;6.40;;
